Forerunner — WDD4581 — position and weather

sailwx.info

Track history (hours):
 
Tides and Currents Weather Stations Pressure Air Temp Water Temp Dewpoint Dewpoint Depression Visibility Wind Speed Wind Dir Waves Ship Positions

Forerunner

Owner: Clatsop Community College, Astoria, OR. More information available from US FCC via Universal Licensing System and Coast Guard Vessel Documentation Center.

Last reported at 2018-Apr-25 13:58 UTC. Time now 2018-Apr-25 14:05 UTC.
Position N 46°11' W 123°45'.

Length 15 m.

MMSI: 367146590.

Date/timePositionNaut miles runAvg speedWind from/ knotsBaromVisibWave heightAir tempDewpointWater temp
2018-Apr-25 13:58N 46°11' W 123°45'0 0.0
2018-Apr-25 13:25N 46°11' W 123°45'0 0.0
2018-Apr-25 12:58N 46°11' W 123°45'0 0.0
2018-Apr-25 12:28N 46°11' W 123°45'0 0.0
2018-Apr-25 11:49N 46°11' W 123°45'0 0.0
2018-Apr-25 11:25N 46°11' W 123°45'0 0.0
2018-Apr-25 10:58N 46°11' W 123°45'0 0.0
2018-Apr-25 10:25N 46°11' W 123°45'0 0.0
2018-Apr-25 09:58N 46°11' W 123°45'0 0.0
2018-Apr-25 09:28N 46°11' W 123°45'0 0.0
2018-Apr-25 08:55N 46°11' W 123°45'0 0.0
2018-Apr-25 08:28N 46°11' W 123°45'0 0.0
2018-Apr-25 07:58N 46°11' W 123°45'0 0.0
2018-Apr-25 07:28N 46°11' W 123°45'0 0.0
2018-Apr-25 06:58N 46°11' W 123°45'0 0.0
2018-Apr-25 06:28N 46°11' W 123°45'0 0.0
2018-Apr-25 05:58N 46°11' W 123°45'0 0.0
2018-Apr-25 05:28N 46°11' W 123°45'0 0.0
2018-Apr-25 04:43N 46°11' W 123°45'0 0.0
2018-Apr-25 04:28N 46°11' W 123°45'0 0.0
2018-Apr-25 03:49N 46°11' W 123°45'0 0.0
2018-Apr-25 03:28N 46°11' W 123°45'0 0.0
2018-Apr-25 02:55N 46°11' W 123°45'0 0.0
2018-Apr-25 02:25N 46°11' W 123°45'0 0.0
2018-Apr-25 01:58N 46°11' W 123°45'0 0.0
2018-Apr-25 01:25N 46°11' W 123°45'0 0.0
2018-Apr-25 00:58N 46°11' W 123°45'0 0.0
2018-Apr-25 00:28N 46°11' W 123°45'0 0.0
2018-Apr-24 23:52N 46°11' W 123°45'0 0.0
2018-Apr-24 23:28N 46°11' W 123°45'0 0.0
2018-Apr-24 22:58N 46°11' W 123°45'0 0.0
2018-Apr-24 22:28N 46°11' W 123°45'0 0.0
2018-Apr-24 21:57N 46°11' W 123°45'0 0.3
2018-Apr-24 21:29N 46°12' W 123°45'4 4.6
2018-Apr-24 20:41N 46°12' W 123°50'1 4.6
2018-Apr-24 20:30N 46°12' W 123°51'2 4.6
2018-Apr-24 20:00N 46°11' W 123°55'2 4.5
2018-Apr-24 19:31N 46°13' W 123°57'4 8.0
2018-Apr-24 19:01N 46°12' W 123°52'5 9.2
2018-Apr-24 18:30N 46°13' W 123°45'2 2.3
2018-Apr-24 17:48N 46°11' W 123°45'0 0.3
2018-Apr-24 17:17N 46°11' W 123°45'0 0.0
2018-Apr-24 16:59N 46°11' W 123°45'0 0.0
2018-Apr-24 16:29N 46°11' W 123°45'0 0.0
2018-Apr-24 15:59N 46°11' W 123°45'0 0.0
2018-Apr-24 15:29N 46°11' W 123°45'0 0.0
2018-Apr-24 14:59N 46°11' W 123°45'0 0.0
2018-Apr-24 14:29N 46°11' W 123°45'0 0.0
2018-Apr-24 13:59N 46°11' W 123°45'0 0.0
2018-Apr-24 12:44N 46°11' W 123°45'0 0.0
2018-Apr-24 12:29N 46°11' W 123°45'0 0.0
2018-Apr-24 11:59N 46°11' W 123°45'0 0.0
2018-Apr-24 11:29N 46°11' W 123°45'0 0.0
2018-Apr-24 10:59N 46°11' W 123°45'0 0.0
2018-Apr-24 10:29N 46°11' W 123°45'0 0.0
2018-Apr-24 09:56N 46°11' W 123°45'0 0.0
2018-Apr-24 09:29N 46°11' W 123°45'0 0.0
2018-Apr-24 08:59N 46°11' W 123°45'0 0.0
2018-Apr-24 08:29N 46°11' W 123°45'0 0.0
2018-Apr-24 07:59N 46°11' W 123°45'0 0.0
2018-Apr-24 07:29N 46°11' W 123°45'0 0.0
2018-Apr-24 06:59N 46°11' W 123°45'0 0.0
2018-Apr-24 06:29N 46°11' W 123°45'0 0.0
2018-Apr-24 05:59N 46°11' W 123°45'0 0.0
2018-Apr-24 05:02N 46°11' W 123°45'0 0.0
2018-Apr-24 04:59N 46°11' W 123°45'0 0.0
2018-Apr-24 04:26N 46°11' W 123°45'0 0.0
2018-Apr-24 03:59N 46°11' W 123°45'0 0.0
2018-Apr-24 03:29N 46°11' W 123°45'0 0.0
2018-Apr-24 02:59N 46°11' W 123°45'0 0.0
2018-Apr-24 02:29N 46°11' W 123°45'0 0.0
2018-Apr-24 01:59N 46°11' W 123°45'0 0.0
2018-Apr-24 01:29N 46°11' W 123°45'0 0.0
2018-Apr-24 00:50N 46°11' W 123°45'0 0.0
2018-Apr-24 00:29N 46°11' W 123°45'0 0.0
2018-Apr-23 23:59N 46°11' W 123°45'0 0.0
2018-Apr-23 23:29N 46°11' W 123°45'0 0.0
2018-Apr-23 22:59N 46°11' W 123°45'0 0.0
2018-Apr-23 22:29N 46°11' W 123°45'0 0.0
2018-Apr-23 21:50N 46°11' W 123°45'0 0.0
2018-Apr-23 21:29N 46°11' W 123°45'0 0.0
2018-Apr-23 20:59N 46°11' W 123°45'0 0.0
2018-Apr-23 20:26N 46°11' W 123°45'0 0.0
2018-Apr-23 19:59N 46°11' W 123°45'0 0.0
2018-Apr-23 19:08N 46°11' W 123°45'0 0.0
2018-Apr-23 18:59N 46°11' W 123°45'0 0.0
2018-Apr-23 18:29N 46°11' W 123°45'0 0.0
2018-Apr-23 17:59N 46°11' W 123°45'0 0.0
2018-Apr-23 17:29N 46°11' W 123°45'0 0.0
2018-Apr-23 16:59N 46°11' W 123°45'0 0.0
2018-Apr-23 16:17N 46°11' W 123°45'0 0.0
2018-Apr-23 15:59N 46°11' W 123°45'0 0.0
2018-Apr-23 15:29N 46°11' W 123°45'0 0.0
2018-Apr-23 14:59N 46°11' W 123°45'0 0.0
2018-Apr-23 14:29N 46°11' W 123°45'0 0.0
2018-Apr-23 13:59N 46°11' W 123°45'0 0.0
2018-Apr-23 13:29N 46°11' W 123°45'0 0.0
2018-Apr-23 12:59N 46°11' W 123°45'0 0.0
2018-Apr-23 12:29N 46°11' W 123°45'0 0.0
2018-Apr-23 11:56N 46°11' W 123°45'0 0.0
2018-Apr-23 11:29N 46°11' W 123°45'0 0.0
2018-Apr-23 10:59N 46°11' W 123°45'0 0.0
2018-Apr-23 10:29N 46°11' W 123°45'0 0.0
2018-Apr-23 09:59N 46°11' W 123°45'0 0.0
2018-Apr-23 09:29N 46°11' W 123°45'0 0.0
2018-Apr-23 07:59N 46°11' W 123°45'0 0.0
2018-Apr-23 07:29N 46°11' W 123°45'0 0.0
2018-Apr-23 06:59N 46°11' W 123°45'0 0.0
2018-Apr-23 06:29N 46°11' W 123°45'0 0.0
2018-Apr-23 05:59N 46°11' W 123°45'0 0.0
2018-Apr-23 05:26N 46°11' W 123°45'0 0.0
2018-Apr-23 04:59N 46°11' W 123°45'0 0.0
2018-Apr-23 04:29N 46°11' W 123°45'0 0.0
2018-Apr-23 03:56N 46°11' W 123°45'0 0.0
2018-Apr-23 03:29N 46°11' W 123°45'0 0.0
2018-Apr-23 02:59N 46°11' W 123°45'0 0.0
2018-Apr-23 02:29N 46°11' W 123°45'0 0.0
2018-Apr-23 01:59N 46°11' W 123°45'0 0.0
2018-Apr-23 01:29N 46°11' W 123°45'0 0.0
2018-Apr-23 00:59N 46°11' W 123°45'0 0.0
2018-Apr-23 00:29N 46°11' W 123°45'0 0.0
2018-Apr-22 23:59N 46°11' W 123°45'0 0.0
2018-Apr-22 23:29N 46°11' W 123°45'0 0.0
2018-Apr-22 22:59N 46°11' W 123°45'0 0.0
2018-Apr-22 22:29N 46°11' W 123°45'0 0.0
2018-Apr-22 21:59N 46°11' W 123°45'0 0.0
2018-Apr-22 21:23N 46°11' W 123°45'0 0.0
2018-Apr-22 20:59N 46°11' W 123°45'0 0.0
2018-Apr-22 20:20N 46°11' W 123°45'0 0.0
2018-Apr-22 19:59N 46°11' W 123°45'0 0.0
2018-Apr-22 19:29N 46°11' W 123°45'0 0.0
2018-Apr-22 18:59N 46°11' W 123°45'0 0.0
2018-Apr-22 18:29N 46°11' W 123°45'0 0.0
2018-Apr-22 17:59N 46°11' W 123°45'0 0.0
2018-Apr-22 17:29N 46°11' W 123°45'0 0.0
2018-Apr-22 16:38N 46°11' W 123°45'0 0.0
2018-Apr-22 16:29N 46°11' W 123°45'0 0.0
2018-Apr-22 15:56N 46°11' W 123°45'0 0.0
2018-Apr-22 15:29N 46°11' W 123°45'0 0.0
2018-Apr-22 14:44N 46°11' W 123°45'0 0.0
2018-Apr-22 14:29N 46°11' W 123°45'0 0.0
2018-Apr-22 13:59N 46°11' W 123°45'0 0.0
2018-Apr-22 13:29N 46°11' W 123°45'0 0.0
2018-Apr-22 12:53N 46°11' W 123°45'0 0.0
2018-Apr-22 12:26N 46°11' W 123°45'0 0.0
2018-Apr-22 11:59N 46°11' W 123°45'0 0.0
2018-Apr-22 11:29N 46°11' W 123°45'0 0.0
2018-Apr-22 10:59N 46°11' W 123°45'0 0.0
2018-Apr-22 10:14N 46°11' W 123°45'0 0.0
2018-Apr-22 09:59N 46°11' W 123°45'0 0.0
2018-Apr-22 09:26N 46°11' W 123°45'0 0.0
2018-Apr-22 08:59N 46°11' W 123°45'0 0.0
2018-Apr-22 08:20N 46°11' W 123°45'0 0.0
2018-Apr-22 07:59N 46°11' W 123°45'0 0.0
2018-Apr-22 07:14N 46°11' W 123°45'0 0.0
2018-Apr-22 06:47N 46°11' W 123°45'0 0.0
2018-Apr-22 06:20N 46°11' W 123°45'0 0.0
2018-Apr-22 05:56N 46°11' W 123°45'0 0.0
2018-Apr-22 05:11N 46°11' W 123°45'0 0.0
2018-Apr-22 04:59N 46°11' W 123°45'0 0.0
2018-Apr-22 04:26N 46°11' W 123°45'0 0.0
2018-Apr-22 03:56N 46°11' W 123°45'0 0.0
2018-Apr-22 03:29N 46°11' W 123°45'0 0.0
2018-Apr-22 02:38N 46°11' W 123°45'0 0.0
2018-Apr-22 02:29N 46°11' W 123°45'0 0.0
2018-Apr-22 01:56N 46°11' W 123°45'0 0.0
2018-Apr-22 01:29N 46°11' W 123°45'0 0.0
2018-Apr-22 00:59N 46°11' W 123°45'0 0.0
2018-Apr-22 00:29N 46°11' W 123°45'0 0.0
2018-Apr-21 23:53N 46°11' W 123°45'0 0.0
2018-Apr-21 23:29N 46°11' W 123°45'0 0.0
2018-Apr-21 22:59N 46°11' W 123°45'0 0.0
2018-Apr-21 22:29N 46°11' W 123°45'0 0.0
2018-Apr-21 21:59N 46°11' W 123°45'0 0.0
2018-Apr-21 21:29N 46°11' W 123°45'0 0.0
2018-Apr-21 20:59N 46°11' W 123°45'0 0.0
2018-Apr-21 20:29N 46°11' W 123°45'0 0.0
2018-Apr-21 19:59N 46°11' W 123°45'0 0.0
2018-Apr-21 19:29N 46°11' W 123°45'0 0.0
2018-Apr-21 18:56N 46°11' W 123°45'0 0.0
2018-Apr-21 18:29N 46°11' W 123°45'0 0.0
2018-Apr-21 17:44N 46°11' W 123°45'0 0.0
2018-Apr-21 17:29N 46°11' W 123°45'0 0.0
2018-Apr-21 16:59N 46°11' W 123°45'0 0.0
2018-Apr-21 16:29N 46°11' W 123°45'0 0.0
2018-Apr-21 15:59N 46°11' W 123°45'0 0.0
2018-Apr-21 15:20N 46°11' W 123°45'0 0.0
2018-Apr-21 14:56N 46°11' W 123°45'0 0.0
2018-Apr-21 14:29N 46°11' W 123°45'0 0.0
2018-Apr-21 13:59N 46°11' W 123°45'0 0.0
2018-Apr-21 13:29N 46°11' W 123°45'0 0.0
2018-Apr-21 12:59N 46°11' W 123°45'0 0.0
2018-Apr-21 12:05N 46°11' W 123°45'0 0.0
2018-Apr-21 11:59N 46°11' W 123°45'0 0.0
2018-Apr-21 11:29N 46°11' W 123°45'0 0.0
2018-Apr-21 10:59N 46°11' W 123°45'0 0.0
2018-Apr-21 10:29N 46°11' W 123°45'0 0.0
2018-Apr-21 09:59N 46°11' W 123°45'0 0.0
2018-Apr-21 09:29N 46°11' W 123°45'0 0.0
2018-Apr-21 08:59N 46°11' W 123°45'0 0.0
2018-Apr-21 08:29N 46°11' W 123°45'0 0.0
2018-Apr-21 07:56N 46°11' W 123°45'0 0.0
2018-Apr-21 07:29N 46°11' W 123°45'0 0.0
2018-Apr-21 06:59N 46°11' W 123°45'0 0.0
2018-Apr-21 06:29N 46°11' W 123°45'0 0.0
2018-Apr-21 05:59N 46°11' W 123°45'0 0.0
2018-Apr-21 05:29N 46°11' W 123°45'0 0.0
2018-Apr-21 04:56N 46°11' W 123°45'0 0.0
2018-Apr-21 04:29N 46°11' W 123°45'0 0.0
2018-Apr-21 03:59N 46°11' W 123°45'0 0.0
2018-Apr-21 03:29N 46°11' W 123°45'0 0.0
2018-Apr-21 02:59N 46°11' W 123°45'0 0.0
2018-Apr-21 02:26N 46°11' W 123°45'0 0.0
2018-Apr-21 01:59N 46°11' W 123°45'0 0.0
2018-Apr-21 01:17N 46°11' W 123°45'0 0.0
2018-Apr-21 00:59N 46°11' W 123°45'0 0.0
2018-Apr-21 00:26N 46°11' W 123°45'0 0.0
2018-Apr-20 23:59N 46°11' W 123°45'0 0.0
2018-Apr-20 23:29N 46°11' W 123°45'0 0.0
2018-Apr-20 22:59N 46°11' W 123°45'0 0.0
2018-Apr-20 22:08N 46°11' W 123°45'0 0.0
2018-Apr-20 21:59N 46°11' W 123°45'0 0.0
2018-Apr-20 21:29N 46°11' W 123°45'0 0.0
2018-Apr-20 20:56N 46°11' W 123°45'0 0.0
2018-Apr-20 20:29N 46°11' W 123°45'0 0.0
2018-Apr-20 19:59N 46°11' W 123°45'0 0.0
2018-Apr-20 19:29N 46°11' W 123°45'0 0.0
2018-Apr-20 18:53N 46°11' W 123°45'0 0.0
2018-Apr-20 18:29N 46°11' W 123°45'0 0.0
2018-Apr-20 17:59N 46°11' W 123°45'0 0.0
2018-Apr-20 17:20N 46°11' W 123°45'0 0.0
2018-Apr-20 16:59N 46°11' W 123°45'0 0.0
2018-Apr-20 16:29N 46°11' W 123°45'0 0.0
2018-Apr-20 15:59N 46°11' W 123°45'0 0.0
2018-Apr-20 15:29N 46°11' W 123°45'0 0.0
2018-Apr-20 14:56N 46°11' W 123°45'0 0.0
2018-Apr-20 14:29N 46°11' W 123°45'0 0.0
2018-Apr-20 13:59N 46°11' W 123°45'0 0.0
2018-Apr-20 13:29N 46°11' W 123°45'0 0.0
2018-Apr-20 12:59N 46°11' W 123°45'0 0.0
2018-Apr-20 12:29N 46°11' W 123°45'0 0.0
2018-Apr-20 11:41N 46°11' W 123°45'0 0.0
2018-Apr-20 11:29N 46°11' W 123°45'0 0.0
2018-Apr-20 10:59N 46°11' W 123°45'0 0.0
2018-Apr-20 10:29N 46°11' W 123°45'0 0.0
2018-Apr-20 09:59N 46°11' W 123°45'0 0.0
2018-Apr-20 09:29N 46°11' W 123°45'0 0.0
2018-Apr-20 08:59N 46°11' W 123°45'0 0.0
2018-Apr-20 08:29N 46°11' W 123°45'0 0.0
2018-Apr-20 07:59N 46°11' W 123°45'0 0.0
2018-Apr-20 07:26N 46°11' W 123°45'0 0.0
2018-Apr-20 06:59N 46°11' W 123°45'0 0.0
2018-Apr-20 06:29N 46°11' W 123°45'0 0.0
2018-Apr-20 05:56N 46°11' W 123°45'0 0.0
2018-Apr-20 05:29N 46°11' W 123°45'0 0.0
2018-Apr-20 04:59N 46°11' W 123°45'0 0.0
2018-Apr-20 04:26N 46°11' W 123°45'0 0.0
2018-Apr-20 03:59N 46°11' W 123°45'0 0.0
2018-Apr-20 03:29N 46°11' W 123°45'0 0.0
2018-Apr-20 02:59N 46°11' W 123°45'0 0.0
2018-Apr-20 02:29N 46°11' W 123°45'0 0.0
2018-Apr-20 01:59N 46°11' W 123°45'0 0.0
2018-Apr-20 01:29N 46°11' W 123°45'0 0.0
2018-Apr-20 00:59N 46°11' W 123°45'0 0.0
2018-Apr-20 00:29N 46°11' W 123°45'0 0.0
2018-Apr-19 23:59N 46°11' W 123°45'0 0.0
2018-Apr-19 23:29N 46°11' W 123°45'0 0.0
2018-Apr-19 22:59N 46°11' W 123°45'0 0.0
2018-Apr-19 22:29N 46°11' W 123°45'0 0.0
2018-Apr-19 21:59N 46°11' W 123°45'0 0.0
2018-Apr-19 21:26N 46°11' W 123°45'0 0.0
2018-Apr-19 20:59N 46°11' W 123°45'0 0.0
2018-Apr-19 20:26N 46°11' W 123°45'0 0.0
2018-Apr-19 19:59N 46°11' W 123°45'0 0.0
2018-Apr-19 19:29N 46°11' W 123°45'0 0.0
2018-Apr-19 18:59N 46°11' W 123°45'0 0.0
2018-Apr-19 18:29N 46°11' W 123°45'0 0.0
2018-Apr-19 17:59N 46°11' W 123°45'0 0.0
2018-Apr-19 17:26N 46°11' W 123°45'0 0.0
2018-Apr-19 16:59N 46°11' W 123°45'0 0.0
2018-Apr-19 16:29N 46°11' W 123°45'0 0.0
2018-Apr-19 15:59N 46°11' W 123°45'0 0.0
2018-Apr-19 15:11N 46°11' W 123°45'0 0.0
2018-Apr-19 14:59N 46°11' W 123°45'0 0.0
2018-Apr-19 14:29N 46°11' W 123°45'0 0.0
2018-Apr-19 13:59N 46°11' W 123°45'0 0.0
2018-Apr-19 13:29N 46°11' W 123°45'0 0.0
2018-Apr-19 12:59N 46°11' W 123°45'0 0.0
2018-Apr-19 12:29N 46°11' W 123°45'0 0.0
2018-Apr-19 11:59N 46°11' W 123°45'0 0.0
2018-Apr-19 11:20N 46°11' W 123°45'0 0.0
2018-Apr-19 10:59N 46°11' W 123°45'0 0.0
2018-Apr-19 10:29N 46°11' W 123°45'0 0.0
2018-Apr-19 09:59N 46°11' W 123°45'0 0.0
2018-Apr-19 09:29N 46°11' W 123°45'0 0.0
2018-Apr-19 08:59N 46°11' W 123°45'0 0.0
2018-Apr-19 08:29N 46°11' W 123°45'0 0.0
2018-Apr-19 07:59N 46°11' W 123°45'0 0.0
2018-Apr-19 07:29N 46°11' W 123°45'0 0.0
2018-Apr-19 06:59N 46°11' W 123°45'0 0.0
2018-Apr-19 06:17N 46°11' W 123°45'0 0.0
2018-Apr-19 05:59N 46°11' W 123°45'0 0.0
2018-Apr-19 05:29N 46°11' W 123°45'0 0.0
2018-Apr-19 04:56N 46°11' W 123°45'0 0.0
2018-Apr-19 04:29N 46°11' W 123°45'0 0.0
2018-Apr-19 03:59N 46°11' W 123°45'0 0.0
2018-Apr-19 03:29N 46°11' W 123°45'0 0.0
2018-Apr-19 02:59N 46°11' W 123°45'0 0.0
2018-Apr-19 02:29N 46°11' W 123°45'0 0.0
2018-Apr-19 01:59N 46°11' W 123°45'0 0.0
2018-Apr-19 01:17N 46°11' W 123°45'0 0.0
2018-Apr-19 00:59N 46°11' W 123°45'0 0.0
2018-Apr-19 00:29N 46°11' W 123°45'0 0.0
2018-Apr-18 23:56N 46°11' W 123°45'0 0.0
2018-Apr-18 23:29N 46°11' W 123°45'0 0.0
2018-Apr-18 22:59N 46°11' W 123°45'0 0.0
2018-Apr-18 22:11N 46°11' W 123°45'0 0.0
2018-Apr-18 21:44N 46°11' W 123°45'0 0.0
2018-Apr-18 21:23N 46°11' W 123°45'0 0.0
2018-Apr-18 20:59N 46°11' W 123°45'0 0.0
2018-Apr-18 20:29N 46°11' W 123°45'0 0.0
2018-Apr-18 19:59N 46°11' W 123°45'0 0.0
2018-Apr-18 19:29N 46°11' W 123°45'0 0.0
2018-Apr-18 18:53N 46°11' W 123°45'0 0.0
2018-Apr-18 18:29N 46°11' W 123°45'0 0.0
2018-Apr-18 17:38N 46°11' W 123°45'0 0.0
2018-Apr-18 17:29N 46°11' W 123°45'0 0.0
2018-Apr-18 16:59N 46°11' W 123°45'0 0.0
2018-Apr-18 16:30N 46°11' W 123°45'0 0.0
2018-Apr-18 15:59N 46°11' W 123°45'0 0.0
2018-Apr-18 15:26N 46°11' W 123°45'0 0.0
2018-Apr-18 14:59N 46°11' W 123°45'0 0.0
2018-Apr-18 14:29N 46°11' W 123°45'0 0.0
2018-Apr-18 13:59N 46°11' W 123°45'0 0.0
2018-Apr-18 13:26N 46°11' W 123°45'0 0.0
2018-Apr-18 12:59N 46°11' W 123°45'0 0.0
2018-Apr-18 12:29N 46°11' W 123°45'0 0.0
2018-Apr-18 11:59N 46°11' W 123°45'0 0.0
2018-Apr-18 11:26N 46°11' W 123°45'0 0.0
2018-Apr-18 10:56N 46°11' W 123°45'0 0.0
2018-Apr-18 10:29N 46°11' W 123°45'0 0.0
2018-Apr-18 09:59N 46°11' W 123°45'0 0.0
2018-Apr-18 09:29N 46°11' W 123°45'0 0.0
2018-Apr-18 08:56N 46°11' W 123°45'0 0.0
2018-Apr-18 08:29N 46°11' W 123°45'0 0.0
2018-Apr-18 07:59N 46°11' W 123°45'0 0.0
2018-Apr-18 07:29N 46°11' W 123°45'0 0.0
2018-Apr-18 06:50N 46°11' W 123°45'0 0.0
2018-Apr-18 06:29N 46°11' W 123°45'0 0.0
2018-Apr-18 05:59N 46°11' W 123°45'0 0.0
2018-Apr-18 05:26N 46°11' W 123°45'0 0.0
2018-Apr-18 04:56N 46°11' W 123°45'0 0.0
2018-Apr-18 04:29N 46°11' W 123°45'0 0.0
2018-Apr-18 03:59N 46°11' W 123°45'0 0.0
2018-Apr-18 03:29N 46°11' W 123°45'0 0.0
2018-Apr-18 02:59N 46°11' W 123°45'0 0.0
2018-Apr-18 02:29N 46°11' W 123°45'0 0.0
2018-Apr-18 01:59N 46°11' W 123°45'0 0.0
2018-Apr-18 01:29N 46°11' W 123°45'0 0.0
2018-Apr-18 00:56N 46°11' W 123°45'0 0.0
2018-Apr-18 00:29N 46°11' W 123°45'0 0.0
2018-Apr-17 23:59N 46°11' W 123°45'0 0.0
2018-Apr-17 23:26N 46°11' W 123°45'0 0.0
2018-Apr-17 22:59N 46°11' W 123°45'0 0.0
2018-Apr-17 22:29N 46°11' W 123°45'0 0.0
2018-Apr-17 21:59N 46°11' W 123°45'0 0.0
2018-Apr-17 21:29N 46°11' W 123°45'0 0.0
2018-Apr-17 20:59N 46°11' W 123°45'0 0.0
2018-Apr-17 20:29N 46°11' W 123°45'0 0.0
2018-Apr-17 19:59N 46°11' W 123°45'0 0.0
2018-Apr-17 19:08N 46°11' W 123°45'0 0.0
2018-Apr-17 18:59N 46°11' W 123°45'0 0.0
2018-Apr-17 18:26N 46°11' W 123°45'0 0.0
2018-Apr-17 17:59N 46°11' W 123°45'0 0.0
2018-Apr-17 17:29N 46°11' W 123°45'0 0.0
2018-Apr-17 16:59N 46°11' W 123°45'0 0.0
2018-Apr-17 16:11N 46°11' W 123°45'0 0.0
2018-Apr-17 15:59N 46°11' W 123°45'0 0.0
2018-Apr-17 15:29N 46°11' W 123°45'0 0.0
2018-Apr-17 14:59N 46°11' W 123°45'0 0.0
2018-Apr-17 14:29N 46°11' W 123°45'0 0.0
2018-Apr-17 13:59N 46°11' W 123°45'0 0.0
2018-Apr-17 13:29N 46°11' W 123°45'0 0.0
2018-Apr-17 12:53N 46°11' W 123°45'0 0.0
2018-Apr-17 12:29N 46°11' W 123°45'0 0.0
2018-Apr-17 11:59N 46°11' W 123°45'0 0.0
2018-Apr-17 11:29N 46°11' W 123°45'0 0.0
2018-Apr-17 10:44N 46°11' W 123°45'0 0.0
2018-Apr-17 10:29N 46°11' W 123°45'0 0.0
2018-Apr-17 09:59N 46°11' W 123°45'0 0.0
2018-Apr-17 09:29N 46°11' W 123°45'0 0.0
2018-Apr-17 08:50N 46°11' W 123°45'0 0.0
2018-Apr-17 08:29N 46°11' W 123°45'0 0.0
2018-Apr-17 07:56N 46°11' W 123°45'0 0.0
2018-Apr-17 07:29N 46°11' W 123°45'0 0.0
2018-Apr-17 06:50N 46°11' W 123°45'0 0.0
2018-Apr-17 06:29N 46°11' W 123°45'0 0.0
2018-Apr-17 05:20N 46°11' W 123°45'0 0.0
2018-Apr-17 04:59N 46°11' W 123°45'0 0.0
2018-Apr-17 04:29N 46°11' W 123°45'0 0.0
2018-Apr-17 03:59N 46°11' W 123°45'0 0.0
2018-Apr-17 03:29N 46°11' W 123°45'0 0.0
2018-Apr-17 02:59N 46°11' W 123°45'0 0.0
2018-Apr-17 02:29N 46°11' W 123°45'0 0.0
2018-Apr-17 01:59N 46°11' W 123°45'0 0.0
2018-Apr-17 01:29N 46°11' W 123°45'0 0.0
2018-Apr-17 00:59N 46°11' W 123°45'0 0.0
2018-Apr-17 00:23N 46°11' W 123°45'0 0.0
2018-Apr-16 23:59N 46°11' W 123°45'0 0.0
2018-Apr-16 23:14N 46°11' W 123°45'0 0.0
2018-Apr-16 22:59N 46°11' W 123°45'0 0.0
2018-Apr-16 22:26N 46°11' W 123°45'0 0.0
2018-Apr-16 21:56N 46°11' W 123°45'0 0.0
2018-Apr-16 21:29N 46°11' W 123°45'0 0.0
2018-Apr-16 20:59N 46°11' W 123°45'0 0.0
2018-Apr-16 20:20N 46°11' W 123°45'0 0.0
2018-Apr-16 19:50N 46°11' W 123°45'0 0.0
2018-Apr-16 19:26N 46°11' W 123°45'0 0.0
2018-Apr-16 18:59N 46°11' W 123°45'0 0.0
2018-Apr-16 18:29N 46°11' W 123°45'0 0.0
2018-Apr-16 17:41N 46°11' W 123°45'0 0.0
2018-Apr-16 17:29N 46°11' W 123°45'0 0.0
2018-Apr-16 16:59N 46°11' W 123°45'0 0.0
2018-Apr-16 16:20N 46°11' W 123°45'0 0.0
2018-Apr-16 15:53N 46°11' W 123°45'0 0.0
2018-Apr-16 15:11N 46°11' W 123°45'0 0.0
2018-Apr-16 14:56N 46°11' W 123°45'0 0.0
2018-Apr-16 14:29N 46°11' W 123°45'0 0.0
2018-Apr-16 13:59N 46°11' W 123°45'0 0.0
2018-Apr-16 13:29N 46°11' W 123°45'0 0.0
2018-Apr-16 12:59N 46°11' W 123°45'0 0.0
2018-Apr-16 12:29N 46°11' W 123°45'0 0.0
2018-Apr-16 11:59N 46°11' W 123°45'0 0.0
2018-Apr-16 11:29N 46°11' W 123°45'0 0.0
2018-Apr-16 10:59N 46°11' W 123°45'0 0.0
2018-Apr-16 10:29N 46°11' W 123°45'0 0.0
2018-Apr-16 09:59N 46°11' W 123°45'0 0.0
2018-Apr-16 09:29N 46°11' W 123°45'0 0.0
2018-Apr-16 08:59N 46°11' W 123°45'0 0.0
2018-Apr-16 08:29N 46°11' W 123°45'0 0.0
2018-Apr-16 07:59N 46°11' W 123°45'0 0.0
2018-Apr-16 07:29N 46°11' W 123°45'0 0.0
2018-Apr-16 06:59N 46°11' W 123°45'0 0.0
2018-Apr-16 06:29N 46°11' W 123°45'0 0.0
2018-Apr-16 05:59N 46°11' W 123°45'0 0.0
2018-Apr-16 05:29N 46°11' W 123°45'0 0.0
2018-Apr-16 04:59N 46°11' W 123°45'0 0.0
2018-Apr-16 04:29N 46°11' W 123°45'0 0.0
2018-Apr-16 03:59N 46°11' W 123°45'0 0.0
2018-Apr-16 03:26N 46°11' W 123°45'0 0.0
2018-Apr-16 02:59N 46°11' W 123°45'0 0.0
2018-Apr-16 02:23N 46°11' W 123°45'0 0.0
2018-Apr-16 01:59N 46°11' W 123°45'0 0.0
2018-Apr-16 01:29N 46°11' W 123°45'0 0.0
2018-Apr-16 00:59N 46°11' W 123°45'0 0.0
2018-Apr-16 00:29N 46°11' W 123°45'0 0.0
2018-Apr-15 23:59N 46°11' W 123°45'0 0.0
2018-Apr-15 23:29N 46°11' W 123°45'0 0.0
2018-Apr-15 22:59N 46°11' W 123°45'0 0.0
2018-Apr-15 22:29N 46°11' W 123°45'0 0.0
2018-Apr-15 21:59N 46°11' W 123°45'0 0.0
2018-Apr-15 21:29N 46°11' W 123°45'0 0.0
2018-Apr-15 20:59N 46°11' W 123°45'0 0.0
2018-Apr-15 20:26N 46°11' W 123°45'0 0.0
2018-Apr-15 19:59N 46°11' W 123°45'0 0.0
2018-Apr-15 19:29N 46°11' W 123°45'0 0.0
2018-Apr-15 18:59N 46°11' W 123°45'0 0.0
2018-Apr-15 18:26N 46°11' W 123°45'0 0.0
2018-Apr-15 17:59N 46°11' W 123°45'0 0.0
2018-Apr-15 17:29N 46°11' W 123°45'0 0.0
2018-Apr-15 16:59N 46°11' W 123°45'0 0.0
2018-Apr-15 16:29N 46°11' W 123°45'0 0.0
2018-Apr-15 15:59N 46°11' W 123°45'0 0.0
2018-Apr-15 15:29N 46°11' W 123°45'0 0.0
2018-Apr-15 14:59N 46°11' W 123°45'0 0.0
2018-Apr-15 14:29N 46°11' W 123°45'0 0.0
2018-Apr-15 13:59N 46°11' W 123°45'  
Track history (hours):
 
Tides and Currents Weather Stations Pressure Air Temp Water Temp Dewpoint Dewpoint Depression Visibility Wind Speed Wind Dir Waves Ship Positions

Forerunner

Owner: Clatsop Community College, Astoria, OR. More information available from US FCC via Universal Licensing System and Coast Guard Vessel Documentation Center.

Last reported at 2018-Apr-25 13:58 UTC. Time now 2018-Apr-25 14:05 UTC.
Position N 46°11' W 123°45'.

Length 15 m.

MMSI: 367146590.

Date/timePositionNaut miles runAvg speedWind from/ knotsBaromVisibWave heightAir tempDewpointWater temp
2018-Apr-25 13:58N 46°11' W 123°45'0 0.0
2018-Apr-25 13:25N 46°11' W 123°45'0 0.0
2018-Apr-25 12:58N 46°11' W 123°45'0 0.0
2018-Apr-25 12:28N 46°11' W 123°45'0 0.0
2018-Apr-25 11:49N 46°11' W 123°45'0 0.0
2018-Apr-25 11:25N 46°11' W 123°45'0 0.0
2018-Apr-25 10:58N 46°11' W 123°45'0 0.0
2018-Apr-25 10:25N 46°11' W 123°45'0 0.0
2018-Apr-25 09:58N 46°11' W 123°45'0 0.0
2018-Apr-25 09:28N 46°11' W 123°45'0 0.0
2018-Apr-25 08:55N 46°11' W 123°45'0 0.0
2018-Apr-25 08:28N 46°11' W 123°45'0 0.0
2018-Apr-25 07:58N 46°11' W 123°45'0 0.0
2018-Apr-25 07:28N 46°11' W 123°45'0 0.0
2018-Apr-25 06:58N 46°11' W 123°45'0 0.0
2018-Apr-25 06:28N 46°11' W 123°45'0 0.0
2018-Apr-25 05:58N 46°11' W 123°45'0 0.0
2018-Apr-25 05:28N 46°11' W 123°45'0 0.0
2018-Apr-25 04:43N 46°11' W 123°45'0 0.0
2018-Apr-25 04:28N 46°11' W 123°45'0 0.0
2018-Apr-25 03:49N 46°11' W 123°45'0 0.0
2018-Apr-25 03:28N 46°11' W 123°45'0 0.0
2018-Apr-25 02:55N 46°11' W 123°45'0 0.0
2018-Apr-25 02:25N 46°11' W 123°45'0 0.0
2018-Apr-25 01:58N 46°11' W 123°45'0 0.0
2018-Apr-25 01:25N 46°11' W 123°45'0 0.0
2018-Apr-25 00:58N 46°11' W 123°45'0 0.0
2018-Apr-25 00:28N 46°11' W 123°45'0 0.0
2018-Apr-24 23:52N 46°11' W 123°45'0 0.0
2018-Apr-24 23:28N 46°11' W 123°45'0 0.0
2018-Apr-24 22:58N 46°11' W 123°45'0 0.0
2018-Apr-24 22:28N 46°11' W 123°45'0 0.0
2018-Apr-24 21:57N 46°11' W 123°45'0 0.3
2018-Apr-24 21:29N 46°12' W 123°45'4 4.6
2018-Apr-24 20:41N 46°12' W 123°50'1 4.6
2018-Apr-24 20:30N 46°12' W 123°51'2 4.6
2018-Apr-24 20:00N 46°11' W 123°55'2 4.5
2018-Apr-24 19:31N 46°13' W 123°57'4 8.0
2018-Apr-24 19:01N 46°12' W 123°52'5 9.2
2018-Apr-24 18:30N 46°13' W 123°45'2 2.3
2018-Apr-24 17:48N 46°11' W 123°45'0 0.3
2018-Apr-24 17:17N 46°11' W 123°45'0 0.0
2018-Apr-24 16:59N 46°11' W 123°45'0 0.0
2018-Apr-24 16:29N 46°11' W 123°45'0 0.0
2018-Apr-24 15:59N 46°11' W 123°45'0 0.0
2018-Apr-24 15:29N 46°11' W 123°45'0 0.0
2018-Apr-24 14:59N 46°11' W 123°45'0 0.0
2018-Apr-24 14:29N 46°11' W 123°45'0 0.0
2018-Apr-24 13:59N 46°11' W 123°45'0 0.0
2018-Apr-24 12:44N 46°11' W 123°45'0 0.0
2018-Apr-24 12:29N 46°11' W 123°45'0 0.0
2018-Apr-24 11:59N 46°11' W 123°45'0 0.0
2018-Apr-24 11:29N 46°11' W 123°45'0 0.0
2018-Apr-24 10:59N 46°11' W 123°45'0 0.0
2018-Apr-24 10:29N 46°11' W 123°45'0 0.0
2018-Apr-24 09:56N 46°11' W 123°45'0 0.0
2018-Apr-24 09:29N 46°11' W 123°45'0 0.0
2018-Apr-24 08:59N 46°11' W 123°45'0 0.0
2018-Apr-24 08:29N 46°11' W 123°45'0 0.0
2018-Apr-24 07:59N 46°11' W 123°45'0 0.0
2018-Apr-24 07:29N 46°11' W 123°45'0 0.0
2018-Apr-24 06:59N 46°11' W 123°45'0 0.0
2018-Apr-24 06:29N 46°11' W 123°45'0 0.0
2018-Apr-24 05:59N 46°11' W 123°45'0 0.0
2018-Apr-24 05:02N 46°11' W 123°45'0 0.0
2018-Apr-24 04:59N 46°11' W 123°45'0 0.0
2018-Apr-24 04:26N 46°11' W 123°45'0 0.0
2018-Apr-24 03:59N 46°11' W 123°45'0 0.0
2018-Apr-24 03:29N 46°11' W 123°45'0 0.0
2018-Apr-24 02:59N 46°11' W 123°45'0 0.0
2018-Apr-24 02:29N 46°11' W 123°45'0 0.0
2018-Apr-24 01:59N 46°11' W 123°45'0 0.0
2018-Apr-24 01:29N 46°11' W 123°45'0 0.0
2018-Apr-24 00:50N 46°11' W 123°45'0 0.0
2018-Apr-24 00:29N 46°11' W 123°45'0 0.0
2018-Apr-23 23:59N 46°11' W 123°45'0 0.0
2018-Apr-23 23:29N 46°11' W 123°45'0 0.0
2018-Apr-23 22:59N 46°11' W 123°45'0 0.0
2018-Apr-23 22:29N 46°11' W 123°45'0 0.0
2018-Apr-23 21:50N 46°11' W 123°45'0 0.0
2018-Apr-23 21:29N 46°11' W 123°45'0 0.0
2018-Apr-23 20:59N 46°11' W 123°45'0 0.0
2018-Apr-23 20:26N 46°11' W 123°45'0 0.0
2018-Apr-23 19:59N 46°11' W 123°45'0 0.0
2018-Apr-23 19:08N 46°11' W 123°45'0 0.0
2018-Apr-23 18:59N 46°11' W 123°45'0 0.0
2018-Apr-23 18:29N 46°11' W 123°45'0 0.0
2018-Apr-23 17:59N 46°11' W 123°45'0 0.0
2018-Apr-23 17:29N 46°11' W 123°45'0 0.0
2018-Apr-23 16:59N 46°11' W 123°45'0 0.0
2018-Apr-23 16:17N 46°11' W 123°45'0 0.0
2018-Apr-23 15:59N 46°11' W 123°45'0 0.0
2018-Apr-23 15:29N 46°11' W 123°45'0 0.0
2018-Apr-23 14:59N 46°11' W 123°45'0 0.0
2018-Apr-23 14:29N 46°11' W 123°45'0 0.0
2018-Apr-23 13:59N 46°11' W 123°45'0 0.0
2018-Apr-23 13:29N 46°11' W 123°45'0 0.0
2018-Apr-23 12:59N 46°11' W 123°45'0 0.0
2018-Apr-23 12:29N 46°11' W 123°45'0 0.0
2018-Apr-23 11:56N 46°11' W 123°45'0 0.0
2018-Apr-23 11:29N 46°11' W 123°45'0 0.0
2018-Apr-23 10:59N 46°11' W 123°45'0 0.0
2018-Apr-23 10:29N 46°11' W 123°45'0 0.0
2018-Apr-23 09:59N 46°11' W 123°45'0 0.0
2018-Apr-23 09:29N 46°11' W 123°45'0 0.0
2018-Apr-23 07:59N 46°11' W 123°45'0 0.0
2018-Apr-23 07:29N 46°11' W 123°45'0 0.0
2018-Apr-23 06:59N 46°11' W 123°45'0 0.0
2018-Apr-23 06:29N 46°11' W 123°45'0 0.0
2018-Apr-23 05:59N 46°11' W 123°45'0 0.0
2018-Apr-23 05:26N 46°11' W 123°45'0 0.0
2018-Apr-23 04:59N 46°11' W 123°45'0 0.0
2018-Apr-23 04:29N 46°11' W 123°45'0 0.0
2018-Apr-23 03:56N 46°11' W 123°45'0 0.0
2018-Apr-23 03:29N 46°11' W 123°45'0 0.0
2018-Apr-23 02:59N 46°11' W 123°45'0 0.0
2018-Apr-23 02:29N 46°11' W 123°45'0 0.0
2018-Apr-23 01:59N 46°11' W 123°45'0 0.0
2018-Apr-23 01:29N 46°11' W 123°45'0 0.0
2018-Apr-23 00:59N 46°11' W 123°45'0 0.0
2018-Apr-23 00:29N 46°11' W 123°45'0 0.0
2018-Apr-22 23:59N 46°11' W 123°45'0 0.0
2018-Apr-22 23:29N 46°11' W 123°45'0 0.0
2018-Apr-22 22:59N 46°11' W 123°45'0 0.0
2018-Apr-22 22:29N 46°11' W 123°45'0 0.0
2018-Apr-22 21:59N 46°11' W 123°45'0 0.0
2018-Apr-22 21:23N 46°11' W 123°45'0 0.0
2018-Apr-22 20:59N 46°11' W 123°45'0 0.0
2018-Apr-22 20:20N 46°11' W 123°45'0 0.0
2018-Apr-22 19:59N 46°11' W 123°45'0 0.0
2018-Apr-22 19:29N 46°11' W 123°45'0 0.0
2018-Apr-22 18:59N 46°11' W 123°45'0 0.0
2018-Apr-22 18:29N 46°11' W 123°45'0 0.0
2018-Apr-22 17:59N 46°11' W 123°45'0 0.0
2018-Apr-22 17:29N 46°11' W 123°45'0 0.0
2018-Apr-22 16:38N 46°11' W 123°45'0 0.0
2018-Apr-22 16:29N 46°11' W 123°45'0 0.0
2018-Apr-22 15:56N 46°11' W 123°45'0 0.0
2018-Apr-22 15:29N 46°11' W 123°45'0 0.0
2018-Apr-22 14:44N 46°11' W 123°45'0 0.0
2018-Apr-22 14:29N 46°11' W 123°45'0 0.0
2018-Apr-22 13:59N 46°11' W 123°45'0 0.0
2018-Apr-22 13:29N 46°11' W 123°45'0 0.0
2018-Apr-22 12:53N 46°11' W 123°45'0 0.0
2018-Apr-22 12:26N 46°11' W 123°45'0 0.0
2018-Apr-22 11:59N 46°11' W 123°45'0 0.0
2018-Apr-22 11:29N 46°11' W 123°45'0 0.0
2018-Apr-22 10:59N 46°11' W 123°45'0 0.0
2018-Apr-22 10:14N 46°11' W 123°45'0 0.0
2018-Apr-22 09:59N 46°11' W 123°45'0 0.0
2018-Apr-22 09:26N 46°11' W 123°45'0 0.0
2018-Apr-22 08:59N 46°11' W 123°45'0 0.0
2018-Apr-22 08:20N 46°11' W 123°45'0 0.0
2018-Apr-22 07:59N 46°11' W 123°45'0 0.0
2018-Apr-22 07:14N 46°11' W 123°45'0 0.0
2018-Apr-22 06:47N 46°11' W 123°45'0 0.0
2018-Apr-22 06:20N 46°11' W 123°45'0 0.0
2018-Apr-22 05:56N 46°11' W 123°45'0 0.0
2018-Apr-22 05:11N 46°11' W 123°45'0 0.0
2018-Apr-22 04:59N 46°11' W 123°45'0 0.0
2018-Apr-22 04:26N 46°11' W 123°45'0 0.0
2018-Apr-22 03:56N 46°11' W 123°45'0 0.0
2018-Apr-22 03:29N 46°11' W 123°45'0 0.0
2018-Apr-22 02:38N 46°11' W 123°45'0 0.0
2018-Apr-22 02:29N 46°11' W 123°45'0 0.0
2018-Apr-22 01:56N 46°11' W 123°45'0 0.0
2018-Apr-22 01:29N 46°11' W 123°45'0 0.0
2018-Apr-22 00:59N 46°11' W 123°45'0 0.0
2018-Apr-22 00:29N 46°11' W 123°45'0 0.0
2018-Apr-21 23:53N 46°11' W 123°45'0 0.0
2018-Apr-21 23:29N 46°11' W 123°45'0 0.0
2018-Apr-21 22:59N 46°11' W 123°45'0 0.0
2018-Apr-21 22:29N 46°11' W 123°45'0 0.0
2018-Apr-21 21:59N 46°11' W 123°45'0 0.0
2018-Apr-21 21:29N 46°11' W 123°45'0 0.0
2018-Apr-21 20:59N 46°11' W 123°45'0 0.0
2018-Apr-21 20:29N 46°11' W 123°45'0 0.0
2018-Apr-21 19:59N 46°11' W 123°45'0 0.0
2018-Apr-21 19:29N 46°11' W 123°45'0 0.0
2018-Apr-21 18:56N 46°11' W 123°45'0 0.0
2018-Apr-21 18:29N 46°11' W 123°45'0 0.0
2018-Apr-21 17:44N 46°11' W 123°45'0 0.0
2018-Apr-21 17:29N 46°11' W 123°45'0 0.0
2018-Apr-21 16:59N 46°11' W 123°45'0 0.0
2018-Apr-21 16:29N 46°11' W 123°45'0 0.0
2018-Apr-21 15:59N 46°11' W 123°45'0 0.0
2018-Apr-21 15:20N 46°11' W 123°45'0 0.0
2018-Apr-21 14:56N 46°11' W 123°45'0 0.0
2018-Apr-21 14:29N 46°11' W 123°45'0 0.0
2018-Apr-21 13:59N 46°11' W 123°45'0 0.0
2018-Apr-21 13:29N 46°11' W 123°45'0 0.0
2018-Apr-21 12:59N 46°11' W 123°45'0 0.0
2018-Apr-21 12:05N 46°11' W 123°45'0 0.0
2018-Apr-21 11:59N 46°11' W 123°45'0 0.0
2018-Apr-21 11:29N 46°11' W 123°45'0 0.0
2018-Apr-21 10:59N 46°11' W 123°45'0 0.0
2018-Apr-21 10:29N 46°11' W 123°45'0 0.0
2018-Apr-21 09:59N 46°11' W 123°45'0 0.0
2018-Apr-21 09:29N 46°11' W 123°45'0 0.0
2018-Apr-21 08:59N 46°11' W 123°45'0 0.0
2018-Apr-21 08:29N 46°11' W 123°45'0 0.0
2018-Apr-21 07:56N 46°11' W 123°45'0 0.0
2018-Apr-21 07:29N 46°11' W 123°45'0 0.0
2018-Apr-21 06:59N 46°11' W 123°45'0 0.0
2018-Apr-21 06:29N 46°11' W 123°45'0 0.0
2018-Apr-21 05:59N 46°11' W 123°45'0 0.0
2018-Apr-21 05:29N 46°11' W 123°45'0 0.0
2018-Apr-21 04:56N 46°11' W 123°45'0 0.0
2018-Apr-21 04:29N 46°11' W 123°45'0 0.0
2018-Apr-21 03:59N 46°11' W 123°45'0 0.0
2018-Apr-21 03:29N 46°11' W 123°45'0 0.0
2018-Apr-21 02:59N 46°11' W 123°45'0 0.0
2018-Apr-21 02:26N 46°11' W 123°45'0 0.0
2018-Apr-21 01:59N 46°11' W 123°45'0 0.0
2018-Apr-21 01:17N 46°11' W 123°45'0 0.0
2018-Apr-21 00:59N 46°11' W 123°45'0 0.0
2018-Apr-21 00:26N 46°11' W 123°45'0 0.0
2018-Apr-20 23:59N 46°11' W 123°45'0 0.0
2018-Apr-20 23:29N 46°11' W 123°45'0 0.0
2018-Apr-20 22:59N 46°11' W 123°45'0 0.0
2018-Apr-20 22:08N 46°11' W 123°45'0 0.0
2018-Apr-20 21:59N 46°11' W 123°45'0 0.0
2018-Apr-20 21:29N 46°11' W 123°45'0 0.0
2018-Apr-20 20:56N 46°11' W 123°45'0 0.0
2018-Apr-20 20:29N 46°11' W 123°45'0 0.0
2018-Apr-20 19:59N 46°11' W 123°45'0 0.0
2018-Apr-20 19:29N 46°11' W 123°45'0 0.0
2018-Apr-20 18:53N 46°11' W 123°45'0 0.0
2018-Apr-20 18:29N 46°11' W 123°45'0 0.0
2018-Apr-20 17:59N 46°11' W 123°45'0 0.0
2018-Apr-20 17:20N 46°11' W 123°45'0 0.0
2018-Apr-20 16:59N 46°11' W 123°45'0 0.0
2018-Apr-20 16:29N 46°11' W 123°45'0 0.0
2018-Apr-20 15:59N 46°11' W 123°45'0 0.0
2018-Apr-20 15:29N 46°11' W 123°45'0 0.0
2018-Apr-20 14:56N 46°11' W 123°45'0 0.0
2018-Apr-20 14:29N 46°11' W 123°45'0 0.0
2018-Apr-20 13:59N 46°11' W 123°45'0 0.0
2018-Apr-20 13:29N 46°11' W 123°45'0 0.0
2018-Apr-20 12:59N 46°11' W 123°45'0 0.0
2018-Apr-20 12:29N 46°11' W 123°45'0 0.0
2018-Apr-20 11:41N 46°11' W 123°45'0 0.0
2018-Apr-20 11:29N 46°11' W 123°45'0 0.0
2018-Apr-20 10:59N 46°11' W 123°45'0 0.0
2018-Apr-20 10:29N 46°11' W 123°45'0 0.0
2018-Apr-20 09:59N 46°11' W 123°45'0 0.0
2018-Apr-20 09:29N 46°11' W 123°45'0 0.0
2018-Apr-20 08:59N 46°11' W 123°45'0 0.0
2018-Apr-20 08:29N 46°11' W 123°45'0 0.0
2018-Apr-20 07:59N 46°11' W 123°45'0 0.0
2018-Apr-20 07:26N 46°11' W 123°45'0 0.0
2018-Apr-20 06:59N 46°11' W 123°45'0 0.0
2018-Apr-20 06:29N 46°11' W 123°45'0 0.0
2018-Apr-20 05:56N 46°11' W 123°45'0 0.0
2018-Apr-20 05:29N 46°11' W 123°45'0 0.0
2018-Apr-20 04:59N 46°11' W 123°45'0 0.0
2018-Apr-20 04:26N 46°11' W 123°45'0 0.0
2018-Apr-20 03:59N 46°11' W 123°45'0 0.0
2018-Apr-20 03:29N 46°11' W 123°45'0 0.0
2018-Apr-20 02:59N 46°11' W 123°45'0 0.0
2018-Apr-20 02:29N 46°11' W 123°45'0 0.0
2018-Apr-20 01:59N 46°11' W 123°45'0 0.0
2018-Apr-20 01:29N 46°11' W 123°45'0 0.0
2018-Apr-20 00:59N 46°11' W 123°45'0 0.0
2018-Apr-20 00:29N 46°11' W 123°45'0 0.0
2018-Apr-19 23:59N 46°11' W 123°45'0 0.0
2018-Apr-19 23:29N 46°11' W 123°45'0 0.0
2018-Apr-19 22:59N 46°11' W 123°45'0 0.0
2018-Apr-19 22:29N 46°11' W 123°45'0 0.0
2018-Apr-19 21:59N 46°11' W 123°45'0 0.0
2018-Apr-19 21:26N 46°11' W 123°45'0 0.0
2018-Apr-19 20:59N 46°11' W 123°45'0 0.0
2018-Apr-19 20:26N 46°11' W 123°45'0 0.0
2018-Apr-19 19:59N 46°11' W 123°45'0 0.0
2018-Apr-19 19:29N 46°11' W 123°45'0 0.0
2018-Apr-19 18:59N 46°11' W 123°45'0 0.0
2018-Apr-19 18:29N 46°11' W 123°45'0 0.0
2018-Apr-19 17:59N 46°11' W 123°45'0 0.0
2018-Apr-19 17:26N 46°11' W 123°45'0 0.0
2018-Apr-19 16:59N 46°11' W 123°45'0 0.0
2018-Apr-19 16:29N 46°11' W 123°45'0 0.0
2018-Apr-19 15:59N 46°11' W 123°45'0 0.0
2018-Apr-19 15:11N 46°11' W 123°45'0 0.0
2018-Apr-19 14:59N 46°11' W 123°45'0 0.0
2018-Apr-19 14:29N 46°11' W 123°45'0 0.0
2018-Apr-19 13:59N 46°11' W 123°45'0 0.0
2018-Apr-19 13:29N 46°11' W 123°45'0 0.0
2018-Apr-19 12:59N 46°11' W 123°45'0 0.0
2018-Apr-19 12:29N 46°11' W 123°45'0 0.0
2018-Apr-19 11:59N 46°11' W 123°45'0 0.0
2018-Apr-19 11:20N 46°11' W 123°45'0 0.0
2018-Apr-19 10:59N 46°11' W 123°45'0 0.0
2018-Apr-19 10:29N 46°11' W 123°45'0 0.0
2018-Apr-19 09:59N 46°11' W 123°45'0 0.0
2018-Apr-19 09:29N 46°11' W 123°45'0 0.0
2018-Apr-19 08:59N 46°11' W 123°45'0 0.0
2018-Apr-19 08:29N 46°11' W 123°45'0 0.0
2018-Apr-19 07:59N 46°11' W 123°45'0 0.0
2018-Apr-19 07:29N 46°11' W 123°45'0 0.0
2018-Apr-19 06:59N 46°11' W 123°45'0 0.0
2018-Apr-19 06:17N 46°11' W 123°45'0 0.0
2018-Apr-19 05:59N 46°11' W 123°45'0 0.0
2018-Apr-19 05:29N 46°11' W 123°45'0 0.0
2018-Apr-19 04:56N 46°11' W 123°45'0 0.0
2018-Apr-19 04:29N 46°11' W 123°45'0 0.0
2018-Apr-19 03:59N 46°11' W 123°45'0 0.0
2018-Apr-19 03:29N 46°11' W 123°45'0 0.0
2018-Apr-19 02:59N 46°11' W 123°45'0 0.0
2018-Apr-19 02:29N 46°11' W 123°45'0 0.0
2018-Apr-19 01:59N 46°11' W 123°45'0 0.0
2018-Apr-19 01:17N 46°11' W 123°45'0 0.0
2018-Apr-19 00:59N 46°11' W 123°45'0 0.0
2018-Apr-19 00:29N 46°11' W 123°45'0 0.0
2018-Apr-18 23:56N 46°11' W 123°45'0 0.0
2018-Apr-18 23:29N 46°11' W 123°45'0 0.0
2018-Apr-18 22:59N 46°11' W 123°45'0 0.0
2018-Apr-18 22:11N 46°11' W 123°45'0 0.0
2018-Apr-18 21:44N 46°11' W 123°45'0 0.0
2018-Apr-18 21:23N 46°11' W 123°45'0 0.0
2018-Apr-18 20:59N 46°11' W 123°45'0 0.0
2018-Apr-18 20:29N 46°11' W 123°45'0 0.0
2018-Apr-18 19:59N 46°11' W 123°45'0 0.0
2018-Apr-18 19:29N 46°11' W 123°45'0 0.0
2018-Apr-18 18:53N 46°11' W 123°45'0 0.0
2018-Apr-18 18:29N 46°11' W 123°45'0 0.0
2018-Apr-18 17:38N 46°11' W 123°45'0 0.0
2018-Apr-18 17:29N 46°11' W 123°45'0 0.0
2018-Apr-18 16:59N 46°11' W 123°45'0 0.0
2018-Apr-18 16:30N 46°11' W 123°45'0 0.0
2018-Apr-18 15:59N 46°11' W 123°45'0 0.0
2018-Apr-18 15:26N 46°11' W 123°45'0 0.0
2018-Apr-18 14:59N 46°11' W 123°45'0 0.0
2018-Apr-18 14:29N 46°11' W 123°45'0 0.0
2018-Apr-18 13:59N 46°11' W 123°45'0 0.0
2018-Apr-18 13:26N 46°11' W 123°45'0 0.0
2018-Apr-18 12:59N 46°11' W 123°45'0 0.0
2018-Apr-18 12:29N 46°11' W 123°45'0 0.0
2018-Apr-18 11:59N 46°11' W 123°45'0 0.0
2018-Apr-18 11:26N 46°11' W 123°45'0 0.0
2018-Apr-18 10:56N 46°11' W 123°45'0 0.0
2018-Apr-18 10:29N 46°11' W 123°45'0 0.0
2018-Apr-18 09:59N 46°11' W 123°45'0 0.0
2018-Apr-18 09:29N 46°11' W 123°45'0 0.0
2018-Apr-18 08:56N 46°11' W 123°45'0 0.0
2018-Apr-18 08:29N 46°11' W 123°45'0 0.0
2018-Apr-18 07:59N 46°11' W 123°45'0 0.0
2018-Apr-18 07:29N 46°11' W 123°45'0 0.0
2018-Apr-18 06:50N 46°11' W 123°45'0 0.0
2018-Apr-18 06:29N 46°11' W 123°45'0 0.0
2018-Apr-18 05:59N 46°11' W 123°45'0 0.0
2018-Apr-18 05:26N 46°11' W 123°45'0 0.0
2018-Apr-18 04:56N 46°11' W 123°45'0 0.0
2018-Apr-18 04:29N 46°11' W 123°45'0 0.0
2018-Apr-18 03:59N 46°11' W 123°45'0 0.0
2018-Apr-18 03:29N 46°11' W 123°45'0 0.0
2018-Apr-18 02:59N 46°11' W 123°45'0 0.0
2018-Apr-18 02:29N 46°11' W 123°45'0 0.0
2018-Apr-18 01:59N 46°11' W 123°45'0 0.0
2018-Apr-18 01:29N 46°11' W 123°45'0 0.0
2018-Apr-18 00:56N 46°11' W 123°45'0 0.0
2018-Apr-18 00:29N 46°11' W 123°45'0 0.0
2018-Apr-17 23:59N 46°11' W 123°45'0 0.0
2018-Apr-17 23:26N 46°11' W 123°45'0 0.0
2018-Apr-17 22:59N 46°11' W 123°45'0 0.0
2018-Apr-17 22:29N 46°11' W 123°45'0 0.0
2018-Apr-17 21:59N 46°11' W 123°45'0 0.0
2018-Apr-17 21:29N 46°11' W 123°45'0 0.0
2018-Apr-17 20:59N 46°11' W 123°45'0 0.0
2018-Apr-17 20:29N 46°11' W 123°45'0 0.0
2018-Apr-17 19:59N 46°11' W 123°45'0 0.0
2018-Apr-17 19:08N 46°11' W 123°45'0 0.0
2018-Apr-17 18:59N 46°11' W 123°45'0 0.0
2018-Apr-17 18:26N 46°11' W 123°45'0 0.0
2018-Apr-17 17:59N 46°11' W 123°45'0 0.0
2018-Apr-17 17:29N 46°11' W 123°45'0 0.0
2018-Apr-17 16:59N 46°11' W 123°45'0 0.0
2018-Apr-17 16:11N 46°11' W 123°45'0 0.0
2018-Apr-17 15:59N 46°11' W 123°45'0 0.0
2018-Apr-17 15:29N 46°11' W 123°45'0 0.0
2018-Apr-17 14:59N 46°11' W 123°45'0 0.0
2018-Apr-17 14:29N 46°11' W 123°45'0 0.0
2018-Apr-17 13:59N 46°11' W 123°45'0 0.0
2018-Apr-17 13:29N 46°11' W 123°45'0 0.0
2018-Apr-17 12:53N 46°11' W 123°45'0 0.0
2018-Apr-17 12:29N 46°11' W 123°45'0 0.0
2018-Apr-17 11:59N 46°11' W 123°45'0 0.0
2018-Apr-17 11:29N 46°11' W 123°45'0 0.0
2018-Apr-17 10:44N 46°11' W 123°45'0 0.0
2018-Apr-17 10:29N 46°11' W 123°45'0 0.0
2018-Apr-17 09:59N 46°11' W 123°45'0 0.0
2018-Apr-17 09:29N 46°11' W 123°45'0 0.0
2018-Apr-17 08:50N 46°11' W 123°45'0 0.0
2018-Apr-17 08:29N 46°11' W 123°45'0 0.0
2018-Apr-17 07:56N 46°11' W 123°45'0 0.0
2018-Apr-17 07:29N 46°11' W 123°45'0 0.0
2018-Apr-17 06:50N 46°11' W 123°45'0 0.0
2018-Apr-17 06:29N 46°11' W 123°45'0 0.0
2018-Apr-17 05:20N 46°11' W 123°45'0 0.0
2018-Apr-17 04:59N 46°11' W 123°45'0 0.0
2018-Apr-17 04:29N 46°11' W 123°45'0 0.0
2018-Apr-17 03:59N 46°11' W 123°45'0 0.0
2018-Apr-17 03:29N 46°11' W 123°45'0 0.0
2018-Apr-17 02:59N 46°11' W 123°45'0 0.0
2018-Apr-17 02:29N 46°11' W 123°45'0 0.0
2018-Apr-17 01:59N 46°11' W 123°45'0 0.0
2018-Apr-17 01:29N 46°11' W 123°45'0 0.0
2018-Apr-17 00:59N 46°11' W 123°45'0 0.0
2018-Apr-17 00:23N 46°11' W 123°45'0 0.0
2018-Apr-16 23:59N 46°11' W 123°45'0 0.0
2018-Apr-16 23:14N 46°11' W 123°45'0 0.0
2018-Apr-16 22:59N 46°11' W 123°45'0 0.0
2018-Apr-16 22:26N 46°11' W 123°45'0 0.0
2018-Apr-16 21:56N 46°11' W 123°45'0 0.0
2018-Apr-16 21:29N 46°11' W 123°45'0 0.0
2018-Apr-16 20:59N 46°11' W 123°45'0 0.0
2018-Apr-16 20:20N 46°11' W 123°45'0 0.0
2018-Apr-16 19:50N 46°11' W 123°45'0 0.0
2018-Apr-16 19:26N 46°11' W 123°45'0 0.0
2018-Apr-16 18:59N 46°11' W 123°45'0 0.0
2018-Apr-16 18:29N 46°11' W 123°45'0 0.0
2018-Apr-16 17:41N 46°11' W 123°45'0 0.0
2018-Apr-16 17:29N 46°11' W 123°45'0 0.0
2018-Apr-16 16:59N 46°11' W 123°45'0 0.0
2018-Apr-16 16:20N 46°11' W 123°45'0 0.0
2018-Apr-16 15:53N 46°11' W 123°45'0 0.0
2018-Apr-16 15:11N 46°11' W 123°45'0 0.0
2018-Apr-16 14:56N 46°11' W 123°45'0 0.0
2018-Apr-16 14:29N 46°11' W 123°45'0 0.0
2018-Apr-16 13:59N 46°11' W 123°45'0 0.0
2018-Apr-16 13:29N 46°11' W 123°45'0 0.0
2018-Apr-16 12:59N 46°11' W 123°45'0 0.0
2018-Apr-16 12:29N 46°11' W 123°45'0 0.0
2018-Apr-16 11:59N 46°11' W 123°45'0 0.0
2018-Apr-16 11:29N 46°11' W 123°45'0 0.0
2018-Apr-16 10:59N 46°11' W 123°45'0 0.0
2018-Apr-16 10:29N 46°11' W 123°45'0 0.0
2018-Apr-16 09:59N 46°11' W 123°45'0 0.0
2018-Apr-16 09:29N 46°11' W 123°45'0 0.0
2018-Apr-16 08:59N 46°11' W 123°45'0 0.0
2018-Apr-16 08:29N 46°11' W 123°45'0 0.0
2018-Apr-16 07:59N 46°11' W 123°45'0 0.0
2018-Apr-16 07:29N 46°11' W 123°45'0 0.0
2018-Apr-16 06:59N 46°11' W 123°45'0 0.0
2018-Apr-16 06:29N 46°11' W 123°45'0 0.0
2018-Apr-16 05:59N 46°11' W 123°45'0 0.0
2018-Apr-16 05:29N 46°11' W 123°45'0 0.0
2018-Apr-16 04:59N 46°11' W 123°45'0 0.0
2018-Apr-16 04:29N 46°11' W 123°45'0 0.0
2018-Apr-16 03:59N 46°11' W 123°45'0 0.0
2018-Apr-16 03:26N 46°11' W 123°45'0 0.0
2018-Apr-16 02:59N 46°11' W 123°45'0 0.0
2018-Apr-16 02:23N 46°11' W 123°45'0 0.0
2018-Apr-16 01:59N 46°11' W 123°45'0 0.0
2018-Apr-16 01:29N 46°11' W 123°45'0 0.0
2018-Apr-16 00:59N 46°11' W 123°45'0 0.0
2018-Apr-16 00:29N 46°11' W 123°45'0 0.0
2018-Apr-15 23:59N 46°11' W 123°45'0 0.0
2018-Apr-15 23:29N 46°11' W 123°45'0 0.0
2018-Apr-15 22:59N 46°11' W 123°45'0 0.0
2018-Apr-15 22:29N 46°11' W 123°45'0 0.0
2018-Apr-15 21:59N 46°11' W 123°45'0 0.0
2018-Apr-15 21:29N 46°11' W 123°45'0 0.0
2018-Apr-15 20:59N 46°11' W 123°45'0 0.0
2018-Apr-15 20:26N 46°11' W 123°45'0 0.0
2018-Apr-15 19:59N 46°11' W 123°45'0 0.0
2018-Apr-15 19:29N 46°11' W 123°45'0 0.0
2018-Apr-15 18:59N 46°11' W 123°45'0 0.0
2018-Apr-15 18:26N 46°11' W 123°45'0 0.0
2018-Apr-15 17:59N 46°11' W 123°45'0 0.0
2018-Apr-15 17:29N 46°11' W 123°45'0 0.0
2018-Apr-15 16:59N 46°11' W 123°45'0 0.0
2018-Apr-15 16:29N 46°11' W 123°45'0 0.0
2018-Apr-15 15:59N 46°11' W 123°45'0 0.0
2018-Apr-15 15:29N 46°11' W 123°45'0 0.0
2018-Apr-15 14:59N 46°11' W 123°45'0 0.0
2018-Apr-15 14:29N 46°11' W 123°45'0 0.0
2018-Apr-15 13:59N 46°11' W 123°45'  

Dump ship's entire track history